• Join FlightAware (Why Join?)
  • Login
  • US Flag 
06:03PM EDT


 

Airport Tracker/Info


-or-


 

Live Flight TrackerFlight Track Log ✈ SKW6492 ✈ 01-Jul-2013 ✈ KDEN - KCOD

Flight Track Log - Related Links

Times and Time Zones

All times are in EDT time to prevent confusion due to time zone crossing. See the SKW6492 flight status page for this flight to view local times or setup timezone preferences in your user account.

Time Position Orientation Groundspeed Altitude Reporting Facility
EDT Latitude Longitude Course Direction KTS MPH feet Rate Location/Type
09:50PM 39.9000 -104.6833 346° North 189 217 6,300  Level Denver TRACON
09:51PM 39.9667 -104.6833 360° North 218 251 8,400 2,340 Climbing Denver TRACON
09:52PM 40.0333 -104.6667 11° North 243 280 11,000 2,220 Climbing Denver TRACON
09:53PM 40.1486 -104.7662 344° North  Level FlightAware Approximate
09:53PM 40.1000 -104.6667 360° North 239 275 12,900  Level Denver TRACON
09:54PM 40.2489 -104.7963 347° North  Level FlightAware Approximate
09:54PM 40.1667 -104.6833 349° North 234 269 15,400  Level Denver TRACON
09:55PM 40.3491 -104.8275 346° North  Level FlightAware Approximate
09:56PM 40.4489 -104.8607 346° North  Level FlightAware Approximate
09:56PM 40.2736 -104.7156 347° North 268 308 17,900  Level Denver Center
09:57PM 40.3678 -104.7400 349° North 277 319 19,900 1,680 Climbing Denver Center
09:58PM 40.4361 -104.7847 334° Northwest 279 321 21,400 1,440 Climbing Denver Center
09:59PM 40.5069 -104.8522 324° Northwest 292 336 22,900 1,500 Climbing Denver Center
10:00PM 40.5689 -104.9136 323° Northwest 288 331 24,500 1,380 Climbing Denver Center
10:01PM 40.6336 -104.9742 325° Northwest 287 330 25,800 720 Climbing Denver Center
10:02PM 40.6997 -105.0386 324° Northwest 294 338 26,000 60 Climbing Denver Center
10:03PM 40.7650 -105.0975 326° Northwest 285 328 26,000  Level Denver Center
10:04PM 40.8456 -105.1767 323° Northwest 301 346 26,000  Level Denver Center
10:05PM 40.9117 -105.2403 324° Northwest 297 342 26,000  Level Denver Center
10:06PM 40.9775 -105.3058 323° Northwest 296 341 26,000  Level Denver Center
10:07PM 41.0506 -105.3750 324° Northwest 294 338 26,000  Level Denver Center
10:09PM 41.1131 -105.4383 323° Northwest 294 338 26,000  Level Denver Center
10:10PM 41.1986 -105.5214 324° Northwest 297 342 26,000  Level Denver Center
10:11PM 41.2622 -105.5853 323° Northwest 300 345 26,000  Level Denver Center
10:12PM 41.3381 -105.6603 323° Northwest 303 349 26,000  Level Denver Center
10:13PM 41.4031 -105.7247 323° Northwest 303 349 26,000  Level Denver Center
10:14PM 41.4694 -105.7906 323° Northwest 308 354 26,000  Level Denver Center
10:15PM 41.5458 -105.8661 323° Northwest 307 353 26,000  Level Denver Center
10:16PM 41.6103 -105.9294 324° Northwest 302 348 26,000  Level Denver Center
10:17PM 41.6864 -106.0075 323° Northwest 308 354 26,000  Level Denver Center
10:18PM 41.7525 -106.0728 324° Northwest 306 352 26,000  Level Denver Center
10:19PM 41.8181 -106.1386 323° Northwest 306 352 26,000  Level Denver Center
10:20PM 41.8961 -106.2172 323° Northwest 310 357 26,000  Level Denver Center
10:21PM 41.9625 -106.2850 323° Northwest 313 360 26,000  Level Denver Center
10:22PM 42.0392 -106.3625 323° Northwest 310 357 26,000  Level Denver Center
10:23PM 42.1064 -106.4306 323° Northwest 314 361 26,000  Level Denver Center
10:24PM 42.1714 -106.4972 323° Northwest 310 357 26,000  Level Denver Center
10:25PM 42.2447 -106.5711 323° Northwest 316 364 26,000  Level Denver Center
10:26PM 42.3214 -106.6508 322° Northwest 314 361 26,000  Level Denver Center
10:27PM 42.3722 -106.7031 323° Northwest 314 361 26,000  Level Denver Center
10:28PM 42.4597 -106.7947 322° Northwest 312 359 26,000  Level Denver Center
10:29PM 42.5261 -106.8625 323° Northwest 312 359 26,000  Level Denver Center
10:30PM 42.6075 -106.9467 323° Northwest 311 358 26,000  Level Denver Center
10:31PM 42.6706 -107.0128 322° Northwest 315 362 26,000  Level Denver Center
10:32PM 42.7500 -107.0950 323° Northwest 320 368 26,000  Level Denver Center
10:33PM 42.8269 -107.1769 322° Northwest 317 365 26,000  Level Denver Center
10:34PM 42.9050 -107.2578 323° Northwest 315 362 26,000  Level Denver Center
10:35PM 42.9708 -107.3289 322° Northwest 314 361 26,000  Level Denver Center
10:36PM 43.0483 -107.4106 322° Northwest 316 364 26,000  Level Denver Center
10:37PM 43.1133 -107.4806 322° Northwest 312 359 26,000  Level Denver Center
10:38PM 43.1833 -107.5539 323° Northwest 316 364 26,000  Level Denver Center
10:39PM 43.2592 -107.6356 322° Northwest 313 360 26,000  Level Denver Center
10:41PM 43.3250 -107.7058 322° Northwest 312 359 26,000  Level Denver Center
10:42PM 43.3908 -107.7767 322° Northwest 314 361 26,000  Level Denver Center
10:43PM 43.4672 -107.8592 322° Northwest 315 362 26,000  Level Denver Center
10:44PM 43.5556 -107.9558 322° Northwest 315 362 26,000  Level Salt Lake Center
10:45PM 43.6225 -108.0283 322° Northwest 319 367 26,000 -480 Level Salt Lake Center
10:46PM 43.7003 -108.1144 321° Northwest 321 369 25,100 -1,440 Descending Salt Lake Center
10:47PM 43.7678 -108.1883 322° Northwest 323 372 23,100 -2,100 Descending Salt Lake Center
10:48PM 43.8433 -108.2703 322° Northwest 313 360 20,900 -1,740 Descending Salt Lake Center
10:49PM 43.9039 -108.3364 322° Northwest 310 357 19,600 -1,260 Descending Salt Lake Center
10:51PM 44.0040 -108.4484 321° Northwest  Level FlightAware Approximate
10:58PM 44.4720 -108.9720 324° Northwest  Level FlightAware Approximate
10:59PM 44.5167 -109.0167 325° Northwest  Level FlightAware Approximate
11:00PM 44.5202 -109.0238 325° Northwest  Level Estimated
11:01PM 44.5167 -109.0167 325° Northwest  Level FlightAware Approximate
11:02PM 44.5202 -109.0238 325° Northwest  Level Estimated
11:03PM 44.5167 -109.0167 325° Northwest  Level FlightAware Approximate